createdAt,value
2018-07-21T00:01:36.475Z,2.23
2018-07-21T00:04:04.550Z,2.37
2018-07-21T00:06:32.645Z,3.07
2018-07-21T00:09:00.715Z,1.90
2018-07-21T00:11:28.804Z,2.23
2018-07-21T00:13:56.931Z,2.83
2018-07-21T00:16:25.314Z,4.50
2018-07-21T00:18:53.405Z,2.20
2018-07-21T00:21:21.462Z,2.00
2018-07-21T00:23:49.559Z,3.10
2018-07-21T00:26:17.614Z,2.30
2018-07-21T00:28:45.710Z,4.23
2018-07-21T00:31:14.086Z,2.33
2018-07-21T00:33:42.176Z,3.73
2018-07-21T00:36:10.558Z,2.60
2018-07-21T00:38:38.639Z,3.13
2018-07-21T00:41:06.950Z,2.17
2018-07-21T00:43:35.034Z,4.63
2018-07-21T00:46:03.122Z,2.17
2018-07-21T00:48:31.302Z,2.13
2018-07-21T00:50:59.388Z,2.90
2018-07-21T00:53:31.371Z,3.20
2018-07-21T00:55:59.678Z,3.73
2018-07-21T00:58:27.774Z,2.03
2018-07-21T01:00:55.890Z,2.03
2018-07-21T01:03:23.958Z,3.40
2018-07-21T01:05:52.023Z,3.03
2018-07-21T01:08:20.198Z,2.97
2018-07-21T01:10:48.270Z,2.30
2018-07-21T01:13:16.358Z,2.10
2018-07-21T01:15:44.430Z,2.90
2018-07-21T01:18:12.787Z,2.57
2018-07-21T01:20:40.850Z,2.93
2018-07-21T01:23:09.162Z,2.10
2018-07-21T01:25:37.246Z,2.87
2018-07-21T01:28:05.547Z,4.33
2018-07-21T01:30:33.610Z,2.23
2018-07-21T01:33:01.703Z,2.43
2018-07-21T01:35:29.762Z,2.83
2018-07-21T01:37:57.834Z,2.10
2018-07-21T01:40:25.934Z,2.43
2018-07-21T01:42:54.096Z,3.20
2018-07-21T01:45:22.198Z,2.63
2018-07-21T01:47:50.266Z,2.23
2018-07-21T01:50:18.335Z,3.60
2018-07-21T01:52:46.402Z,4.23
2018-07-21T01:55:14.470Z,2.60
2018-07-21T01:57:42.558Z,2.17
2018-07-21T02:00:10.644Z,3.67
2018-07-21T02:02:38.718Z,2.10
2018-07-21T02:05:07.287Z,2.33
2018-07-21T02:07:35.527Z,2.33
2018-07-21T02:10:03.646Z,3.17
2018-07-21T02:12:31.725Z,2.73
2018-07-21T02:14:59.804Z,2.20
2018-07-21T02:17:27.954Z,3.00
2018-07-21T02:19:56.018Z,2.33
2018-07-21T02:22:24.094Z,2.93
2018-07-21T02:24:52.888Z,2.53
2018-07-21T02:27:21.063Z,2.27
2018-07-21T02:29:49.118Z,3.03
2018-07-21T02:32:17.210Z,2.27
2018-07-21T02:34:45.307Z,3.00
2018-07-21T02:37:13.384Z,2.80
2018-07-21T02:39:41.462Z,2.50
2018-07-21T02:42:09.523Z,2.73
2018-07-21T02:44:37.823Z,3.30
2018-07-21T02:47:05.903Z,1.90
2018-07-21T02:49:34.262Z,2.20
2018-07-21T02:52:02.355Z,2.87
2018-07-21T02:54:30.209Z,2.20
2018-07-21T02:56:58.298Z,2.47
2018-07-21T02:59:26.435Z,2.30
2018-07-21T03:01:54.829Z,2.37
2018-07-21T03:04:22.890Z,2.40
2018-07-21T03:06:50.946Z,2.53
2018-07-21T03:09:19.051Z,2.20
2018-07-21T03:11:47.103Z,2.97
2018-07-21T03:14:15.183Z,2.10
2018-07-21T03:16:43.234Z,2.83
2018-07-21T03:19:11.327Z,2.43
2018-07-21T03:21:39.415Z,2.07
2018-07-21T03:24:07.699Z,2.40
2018-07-21T03:26:35.798Z,2.50
2018-07-21T03:29:03.886Z,3.50
2018-07-21T03:31:31.951Z,3.20
2018-07-21T03:34:00.009Z,2.40
2018-07-21T03:36:28.099Z,2.23
2018-07-21T03:38:56.159Z,2.40
2018-07-21T03:41:24.231Z,2.37
2018-07-21T03:43:52.319Z,2.10
2018-07-21T03:46:20.382Z,2.37
2018-07-21T03:48:48.479Z,2.73
2018-07-21T03:51:16.550Z,2.43
2018-07-21T03:53:44.618Z,2.67
2018-07-21T03:56:12.711Z,2.30
2018-07-21T03:58:40.847Z,3.30
2018-07-21T04:01:08.790Z,2.27
2018-07-21T04:03:36.907Z,4.67
2018-07-21T04:06:05.095Z,2.37
2018-07-21T04:08:33.174Z,2.40
2018-07-21T04:11:01.242Z,3.30
2018-07-21T04:13:29.363Z,2.13
2018-07-21T04:15:57.428Z,2.63
2018-07-21T04:18:25.547Z,2.50
2018-07-21T04:20:53.951Z,2.47
2018-07-21T04:23:21.992Z,2.53
2018-07-21T04:25:50.283Z,5.63
2018-07-21T04:28:18.366Z,2.53
2018-07-21T04:30:46.438Z,2.70
2018-07-21T04:33:14.950Z,2.97
2018-07-21T04:35:43.017Z,2.40
2018-07-21T04:38:11.090Z,2.13
2018-07-21T04:40:39.216Z,2.80
2018-07-21T04:43:07.376Z,2.70
2018-07-21T04:45:35.462Z,2.50
2018-07-21T04:48:03.560Z,2.43
2018-07-21T04:50:31.635Z,3.10
2018-07-21T04:52:59.722Z,3.37
2018-07-21T04:55:27.798Z,2.37
2018-07-21T04:57:55.875Z,2.60
2018-07-21T05:00:24.291Z,2.17
2018-07-21T05:02:52.350Z,2.50
2018-07-21T05:05:20.418Z,2.40
2018-07-21T05:07:48.527Z,2.50
2018-07-21T05:10:16.655Z,3.13
2018-07-21T05:12:44.762Z,2.27
2018-07-21T05:15:12.938Z,3.17
2018-07-21T05:17:41.010Z,2.47
2018-07-21T05:20:09.160Z,2.47
2018-07-21T05:22:37.187Z,4.07
2018-07-21T05:25:05.524Z,4.73
2018-07-21T05:27:33.770Z,3.13
2018-07-21T05:30:01.906Z,10.47
2018-07-21T05:32:29.970Z,3.63
2018-07-21T05:34:58.047Z,5.40
2018-07-21T05:37:26.110Z,7.23
2018-07-21T05:39:54.178Z,5.40
2018-07-21T05:42:22.263Z,4.60
2018-07-21T05:44:50.407Z,3.70
2018-07-21T05:47:18.486Z,5.43
2018-07-21T05:49:46.542Z,4.53
2018-07-21T05:52:14.628Z,14.27
2018-07-21T05:54:42.798Z,8.97
2018-07-21T05:57:10.814Z,16.32
2018-07-21T05:59:39.000Z,8.20
2018-07-21T06:02:07.462Z,10.63
2018-07-21T06:04:35.523Z,8.13
2018-07-21T06:07:03.656Z,6.10
2018-07-21T06:09:31.750Z,10.73
2018-07-21T06:11:59.839Z,10.70
2018-07-21T06:14:27.946Z,5.87
2018-07-21T06:16:56.075Z,4.33
2018-07-21T06:19:24.014Z,6.00
2018-07-21T06:21:52.537Z,3.63
2018-07-21T06:24:20.945Z,7.50
2018-07-21T06:26:49.079Z,4.33
2018-07-21T06:29:17.259Z,5.10
2018-07-21T06:31:45.333Z,5.33
2018-07-21T06:34:13.452Z,4.20
2018-07-21T06:36:41.514Z,6.47
2018-07-21T06:39:11.180Z,5.90
2018-07-21T06:41:39.286Z,4.10
2018-07-21T06:44:07.667Z,6.53
2018-07-21T06:46:35.767Z,4.90
2018-07-21T06:49:03.929Z,8.43
2018-07-21T06:51:32.040Z,4.23
2018-07-21T06:54:00.146Z,5.97
2018-07-21T06:56:28.230Z,5.00
2018-07-21T06:58:56.310Z,9.37
2018-07-21T07:01:24.563Z,6.00
2018-07-21T07:03:52.652Z,4.53
2018-07-21T07:06:20.722Z,6.80
2018-07-21T07:08:48.825Z,5.50
2018-07-21T07:11:16.924Z,8.00
2018-07-21T07:13:45.026Z,7.43
2018-07-21T07:16:13.098Z,3.37
2018-07-21T07:18:41.178Z,4.73
2018-07-21T07:21:09.293Z,4.33
2018-07-21T07:23:37.670Z,9.57
2018-07-21T07:26:05.753Z,4.67
2018-07-21T07:28:33.838Z,6.07
2018-07-21T07:31:01.918Z,5.77
2018-07-21T07:33:29.990Z,4.73
2018-07-21T07:35:58.053Z,7.57
2018-07-21T07:38:26.175Z,7.23
2018-07-21T07:40:54.431Z,4.07
2018-07-21T07:43:22.523Z,8.70
2018-07-21T07:45:50.616Z,5.27
2018-07-21T07:48:18.810Z,6.10
2018-07-21T07:50:46.913Z,9.33
2018-07-21T07:53:15.069Z,7.90
2018-07-21T07:55:43.158Z,20.37
2018-07-21T07:58:11.267Z,13.60
2018-07-21T08:00:39.367Z,10.13
2018-07-21T08:03:07.438Z,9.27
2018-07-21T08:05:35.509Z,8.90
2018-07-21T08:08:03.610Z,7.20
2018-07-21T08:10:31.966Z,6.07
2018-07-21T08:13:00.043Z,7.30
2018-07-21T08:15:28.139Z,9.03
2018-07-21T08:17:56.237Z,6.57
2018-07-21T08:20:24.335Z,5.07
2018-07-21T08:22:52.406Z,6.60
2018-07-21T08:25:20.482Z,8.47
2018-07-21T08:27:48.558Z,6.70
2018-07-21T08:30:16.931Z,7.03
2018-07-21T08:32:45.018Z,6.57
2018-07-21T08:35:13.086Z,5.63
2018-07-21T08:37:41.155Z,5.90
2018-07-21T08:40:09.534Z,6.53
2018-07-21T08:42:37.622Z,3.87
2018-07-21T08:45:06.226Z,4.63
2018-07-21T08:47:34.416Z,4.90
2018-07-21T08:50:02.511Z,4.73
2018-07-21T08:52:30.686Z,5.77
2018-07-21T08:54:58.762Z,5.17
2018-07-21T08:57:26.877Z,5.13
2018-07-21T08:59:54.946Z,5.83
2018-07-21T09:02:23.011Z,3.70
2018-07-21T09:04:52.486Z,4.30
2018-07-21T09:07:20.566Z,3.73
2018-07-21T09:09:48.639Z,3.90
2018-07-21T09:12:16.703Z,4.53
2018-07-21T09:14:45.160Z,3.37
2018-07-21T09:17:13.286Z,4.93
2018-07-21T09:19:41.350Z,4.50
2018-07-21T09:22:09.414Z,4.10
2018-07-21T09:24:37.482Z,4.87
2018-07-21T09:27:05.534Z,4.93
2018-07-21T09:29:33.607Z,3.97
2018-07-21T09:32:01.677Z,8.07
2018-07-21T09:34:29.795Z,3.73
2018-07-21T09:36:57.846Z,3.20
2018-07-21T09:39:25.950Z,3.33
2018-07-21T09:41:54.122Z,5.37
2018-07-21T09:44:22.286Z,3.73
2018-07-21T09:46:50.559Z,4.07
2018-07-21T09:49:18.722Z,4.80
2018-07-21T09:51:46.762Z,4.90
2018-07-21T09:54:14.860Z,3.17
2018-07-21T09:56:42.926Z,3.00
2018-07-21T09:59:11.023Z,3.90
2018-07-21T10:01:39.144Z,3.70
2018-07-21T10:04:07.255Z,3.40
2018-07-21T10:06:35.297Z,4.37
2018-07-21T10:09:03.242Z,3.67
2018-07-21T10:11:32.126Z,3.83
2018-07-21T10:14:00.221Z,3.57
2018-07-21T10:16:28.278Z,3.13
2018-07-21T10:18:56.338Z,4.17
2018-07-21T10:21:24.506Z,4.93
2018-07-21T10:23:52.586Z,2.87
2018-07-21T10:26:26.098Z,4.70
2018-07-21T10:28:59.627Z,3.83
2018-07-21T10:31:27.709Z,3.20
2018-07-21T10:33:55.850Z,2.87
2018-07-21T10:36:23.926Z,3.60
2018-07-21T10:38:52.367Z,3.33
2018-07-21T10:41:20.414Z,5.53
2018-07-21T10:43:48.506Z,3.03
2018-07-21T10:46:16.565Z,3.83
2018-07-21T10:48:45.059Z,3.27
2018-07-21T10:51:13.114Z,3.20
2018-07-21T10:53:41.198Z,3.70
2018-07-21T10:56:09.265Z,2.77
2018-07-21T10:58:37.315Z,3.00
2018-07-21T11:01:05.465Z,2.97
2018-07-21T11:03:33.830Z,2.70
2018-07-21T11:06:01.903Z,2.63
2018-07-21T11:08:29.975Z,2.53
2018-07-21T11:10:58.035Z,2.27
2018-07-21T11:13:26.136Z,2.70
2018-07-21T11:15:54.189Z,3.20
2018-07-21T11:18:22.291Z,3.20
2018-07-21T11:20:50.437Z,3.27
2018-07-21T11:23:18.483Z,3.63
2018-07-21T11:25:46.538Z,2.37
2018-07-21T11:28:14.610Z,2.50
2018-07-21T11:30:42.578Z,2.73
2018-07-21T11:33:10.622Z,3.23
2018-07-21T11:35:38.812Z,4.13
2018-07-21T11:38:06.738Z,3.07
2018-07-21T11:40:34.790Z,2.53
2018-07-21T11:43:03.115Z,2.97
2018-07-21T11:45:31.186Z,2.77
2018-07-21T11:47:59.260Z,2.50
2018-07-21T11:50:27.310Z,2.90
2018-07-21T11:52:55.447Z,2.20
2018-07-21T11:55:23.566Z,4.07
2018-07-21T11:57:51.617Z,2.70
2018-07-21T12:00:19.701Z,2.97
2018-07-21T12:02:47.767Z,2.90
2018-07-21T12:05:15.833Z,2.20
2018-07-21T12:07:43.878Z,2.50
2018-07-21T12:10:11.959Z,2.37
2018-07-21T12:12:40.011Z,2.50
2018-07-21T12:15:08.158Z,2.63
2018-07-21T12:17:36.747Z,2.20
2018-07-21T12:20:04.818Z,3.13
2018-07-21T12:22:32.862Z,3.27
2018-07-21T12:25:00.975Z,4.30
2018-07-21T12:27:29.058Z,3.63
2018-07-21T12:29:57.110Z,2.00
2018-07-21T12:32:25.178Z,3.53
2018-07-21T12:34:53.226Z,2.37
2018-07-21T12:37:21.302Z,2.10
2018-07-21T12:39:49.383Z,2.33
2018-07-21T12:42:17.430Z,2.57
2018-07-21T12:44:45.498Z,3.03
2018-07-21T12:47:13.587Z,2.37
2018-07-21T12:49:41.611Z,2.27
2018-07-21T12:52:09.656Z,2.53
2018-07-21T12:54:37.818Z,2.03
2018-07-21T12:57:06.178Z,1.97
2018-07-21T12:59:34.264Z,2.40
2018-07-21T13:02:02.303Z,2.50
2018-07-21T13:04:30.377Z,3.23
2018-07-21T13:06:58.438Z,2.63
2018-07-21T13:09:26.522Z,2.30
2018-07-21T13:11:54.612Z,3.23
2018-07-21T13:14:22.662Z,3.13
2018-07-21T13:16:50.740Z,2.20
2018-07-21T13:19:18.787Z,2.10
2018-07-21T13:21:47.155Z,2.17
2018-07-21T13:24:15.319Z,2.63
2018-07-21T13:26:43.591Z,2.80
2018-07-21T13:29:11.634Z,2.67
2018-07-21T13:31:39.715Z,2.43
2018-07-21T13:34:07.771Z,1.90
2018-07-21T13:36:36.082Z,1.90
2018-07-21T13:39:07.495Z,3.00
2018-07-21T13:41:35.570Z,2.00
2018-07-21T13:44:04.046Z,2.73
2018-07-21T13:46:32.175Z,2.10
2018-07-21T13:49:00.382Z,2.20
2018-07-21T13:51:29.338Z,3.33
2018-07-21T13:53:57.446Z,3.20
2018-07-21T13:56:25.714Z,2.30
2018-07-21T13:58:53.767Z,2.47
2018-07-21T14:01:21.822Z,1.97
2018-07-21T14:03:49.923Z,2.17
2018-07-21T14:06:18.258Z,2.33
2018-07-21T14:08:46.318Z,2.47
2018-07-21T14:11:14.415Z,3.03
2018-07-21T14:13:42.503Z,2.43
2018-07-21T14:16:10.815Z,2.77
2018-07-21T14:18:38.886Z,1.97
2018-07-21T14:21:06.971Z,2.73
2018-07-21T14:23:35.032Z,2.63
2018-07-21T14:26:03.108Z,2.00
2018-07-21T14:28:31.158Z,2.00
2018-07-21T14:30:59.218Z,1.87
2018-07-21T14:33:27.286Z,1.70
2018-07-21T14:35:55.427Z,2.33
2018-07-21T14:38:23.466Z,1.97
2018-07-21T14:40:51.526Z,2.30
2018-07-21T14:43:19.599Z,1.60
2018-07-21T14:45:47.655Z,2.27
2018-07-21T14:48:15.730Z,2.17
2018-07-21T14:50:43.794Z,1.90
2018-07-21T14:53:12.322Z,1.93
2018-07-21T14:55:40.418Z,2.20
2018-07-21T14:58:08.478Z,2.27
2018-07-21T15:00:36.699Z,2.30
2018-07-21T15:03:04.790Z,1.93
2018-07-21T15:05:32.863Z,2.10
2018-07-21T15:08:00.942Z,2.53
2018-07-21T15:10:29.058Z,1.90
2018-07-21T15:12:57.187Z,1.80
2018-07-21T15:15:25.288Z,1.90
2018-07-21T15:17:53.402Z,2.03
2018-07-21T15:20:21.465Z,1.90
2018-07-21T15:22:49.560Z,1.70
2018-07-21T15:25:17.642Z,1.93
2018-07-21T15:27:45.707Z,2.37
2018-07-21T15:30:13.638Z,2.00
2018-07-21T15:32:41.762Z,1.90
2018-07-21T15:35:09.887Z,1.87
2018-07-21T15:37:37.978Z,1.90
2018-07-21T15:40:06.342Z,2.37
2018-07-21T15:42:34.408Z,2.17
2018-07-21T15:45:02.552Z,2.03
2018-07-21T15:47:30.607Z,1.70
2018-07-21T15:49:58.703Z,2.13
2018-07-21T15:52:26.791Z,2.00
2018-07-21T15:54:54.945Z,2.10
2018-07-21T15:57:22.958Z,2.17
2018-07-21T15:59:51.035Z,2.00
2018-07-21T16:02:19.165Z,1.63
2018-07-21T16:04:47.190Z,2.17
2018-07-21T16:07:15.578Z,2.00
2018-07-21T16:09:43.631Z,2.00
2018-07-21T16:12:11.686Z,2.10
2018-07-21T16:14:39.761Z,1.90
2018-07-21T16:17:07.814Z,2.10
2018-07-21T16:19:35.889Z,1.73
2018-07-21T16:22:03.955Z,2.20
2018-07-21T16:24:32.072Z,1.70
2018-07-21T16:27:00.240Z,2.00
2018-07-21T16:29:33.331Z,3.93
2018-07-21T16:32:01.398Z,6.10
2018-07-21T16:34:29.467Z,6.10
2018-07-21T16:36:57.518Z,5.03
2018-07-21T16:39:25.605Z,4.27
2018-07-21T16:41:53.651Z,3.83
2018-07-21T16:44:21.951Z,4.50
2018-07-21T16:46:50.003Z,4.73
2018-07-21T16:49:18.054Z,6.77
2018-07-21T16:51:46.143Z,7.73
2018-07-21T16:54:14.203Z,10.03
2018-07-21T16:56:42.306Z,7.30
2018-07-21T16:59:10.687Z,7.73
2018-07-21T17:01:38.850Z,7.63
2018-07-21T17:04:07.101Z,6.00
2018-07-21T17:06:35.178Z,9.70
2018-07-21T17:09:03.320Z,6.17
2018-07-21T17:11:31.379Z,7.00
2018-07-21T17:13:59.442Z,6.37
2018-07-21T17:16:27.542Z,6.03
2018-07-21T17:18:55.651Z,5.03
2018-07-21T17:21:23.739Z,10.00
2018-07-21T17:23:51.804Z,5.30
2018-07-21T17:26:19.870Z,6.53
2018-07-21T17:28:47.934Z,5.63
2018-07-21T17:31:16.099Z,8.43
2018-07-21T17:33:44.207Z,6.03
2018-07-21T17:36:12.295Z,5.33
2018-07-21T17:38:40.411Z,6.07
2018-07-21T17:41:08.480Z,5.93
2018-07-21T17:43:36.822Z,9.80
2018-07-21T17:46:04.794Z,6.40
2018-07-21T17:48:32.898Z,5.70
2018-07-21T17:51:01.279Z,7.13
2018-07-21T17:53:29.339Z,5.20
2018-07-21T17:55:57.426Z,5.77
2018-07-21T17:58:25.809Z,5.77
2018-07-21T18:00:53.887Z,5.53
2018-07-21T18:03:21.992Z,8.43
2018-07-21T18:05:50.260Z,6.13
2018-07-21T18:08:18.363Z,6.50
2018-07-21T18:10:46.458Z,8.03
2018-07-21T18:13:14.548Z,10.00
2018-07-21T18:15:42.599Z,9.17
2018-07-21T18:18:10.687Z,5.93
2018-07-21T18:20:38.755Z,9.23
2018-07-21T18:23:07.130Z,6.07
2018-07-21T18:25:35.275Z,7.27
2018-07-21T18:28:03.318Z,11.03
2018-07-21T18:30:31.166Z,8.77
2018-07-21T18:32:59.251Z,6.47
2018-07-21T18:35:27.311Z,8.87
2018-07-21T18:37:55.425Z,6.60
2018-07-21T18:40:23.462Z,7.93
2018-07-21T18:42:51.527Z,7.07
2018-07-21T18:45:19.625Z,9.17
2018-07-21T18:47:47.667Z,6.10
2018-07-21T18:50:15.711Z,6.17
2018-07-21T18:52:43.785Z,6.83
2018-07-21T18:55:11.895Z,8.97
2018-07-21T18:57:39.963Z,7.60
2018-07-21T19:00:08.055Z,13.70
2018-07-21T19:02:36.146Z,11.13
2018-07-21T19:05:04.334Z,8.00
2018-07-21T19:07:32.423Z,8.37
2018-07-21T19:10:00.479Z,6.63
2018-07-21T19:12:34.167Z,8.73
2018-07-21T19:15:02.234Z,8.30
2018-07-21T19:17:30.327Z,8.47
2018-07-21T19:20:03.855Z,9.73
2018-07-21T19:22:31.926Z,7.07
2018-07-21T19:25:04.226Z,6.37
2018-07-21T19:27:33.080Z,7.07
2018-07-21T19:30:01.755Z,8.30
2018-07-21T19:32:35.447Z,5.90
2018-07-21T19:35:03.498Z,8.53
2018-07-21T19:37:37.183Z,8.03
2018-07-21T19:40:05.422Z,7.43
2018-07-21T19:42:33.431Z,7.13
2018-07-21T19:45:01.575Z,7.97
2018-07-21T19:47:29.705Z,10.60
2018-07-21T19:49:57.706Z,15.27
2018-07-21T19:52:25.755Z,7.77
2018-07-21T19:54:53.839Z,7.10
2018-07-21T19:57:21.883Z,7.40
2018-07-21T19:59:49.967Z,6.93
2018-07-21T20:02:18.027Z,7.43
2018-07-21T20:04:45.993Z,8.10
2018-07-21T20:07:14.051Z,7.30
2018-07-21T20:09:42.262Z,8.30
2018-07-21T20:12:10.349Z,9.23
2018-07-21T20:14:38.401Z,6.17
2018-07-21T20:17:06.527Z,9.23
2018-07-21T20:19:34.567Z,9.03
2018-07-21T20:22:02.631Z,7.43
2018-07-21T20:24:30.702Z,7.20
2018-07-21T20:26:59.078Z,8.23
2018-07-21T20:29:27.122Z,5.87
2018-07-21T20:31:55.190Z,9.17
2018-07-21T20:34:23.278Z,9.50
2018-07-21T20:36:51.377Z,12.10
2018-07-21T20:39:19.640Z,12.17
2018-07-21T20:41:48.015Z,10.43
2018-07-21T20:44:16.086Z,8.87
2018-07-21T20:46:44.163Z,6.37
2018-07-21T20:49:12.260Z,7.80
2018-07-21T20:51:40.322Z,6.13
2018-07-21T20:54:08.393Z,7.53
2018-07-21T20:56:36.438Z,7.83
2018-07-21T20:59:04.536Z,8.87
2018-07-21T21:01:32.583Z,7.17
2018-07-21T21:04:00.691Z,8.67
2018-07-21T21:06:28.759Z,6.73
2018-07-21T21:08:56.834Z,9.10
2018-07-21T21:11:24.959Z,8.03
2018-07-21T21:13:53.065Z,8.43
2018-07-21T21:16:21.147Z,8.33
2018-07-21T21:18:49.218Z,7.07
2018-07-21T21:21:17.487Z,10.10
2018-07-21T21:23:45.546Z,7.40
2018-07-21T21:26:13.638Z,9.40
2018-07-21T21:28:41.707Z,6.50
2018-07-21T21:31:09.840Z,6.43
2018-07-21T21:33:37.875Z,9.77
2018-07-21T21:36:05.983Z,7.43
2018-07-21T21:38:34.078Z,6.30
2018-07-21T21:41:02.177Z,9.87
2018-07-21T21:43:30.259Z,7.97
2018-07-21T21:45:58.387Z,6.93
2018-07-21T21:48:26.471Z,6.50
2018-07-21T21:50:54.555Z,7.97
2018-07-21T21:53:22.823Z,7.87
2018-07-21T21:55:50.906Z,6.97
2018-07-21T21:58:18.974Z,7.33
2018-07-21T22:01:04.399Z,6.10
2018-07-21T22:03:32.467Z,7.30
2018-07-21T22:06:00.779Z,8.73
2018-07-21T22:08:29.451Z,9.57
2018-07-21T22:10:57.522Z,6.80
2018-07-21T22:13:26.623Z,7.40
2018-07-21T22:15:54.692Z,11.27
2018-07-21T22:18:22.977Z,9.03
2018-07-21T22:20:51.097Z,9.90
2018-07-21T22:23:19.143Z,8.47
2018-07-21T22:25:47.202Z,8.87
2018-07-21T22:28:15.511Z,6.10
2018-07-21T22:30:43.575Z,8.60
2018-07-21T22:33:11.646Z,8.27
2018-07-21T22:35:39.690Z,9.90
2018-07-21T22:38:07.746Z,7.60
2018-07-21T22:40:35.818Z,8.63
2018-07-21T22:43:03.917Z,8.53
2018-07-21T22:45:31.975Z,7.60
2018-07-21T22:48:00.031Z,6.57
2018-07-21T22:50:28.122Z,9.07
2018-07-21T22:52:56.183Z,7.37
2018-07-21T22:55:24.272Z,9.03
2018-07-21T22:57:52.330Z,7.67
2018-07-21T23:00:20.390Z,7.17
2018-07-21T23:02:48.471Z,6.63
2018-07-21T23:05:16.599Z,6.97
2018-07-21T23:07:44.663Z,7.77
2018-07-21T23:10:12.714Z,7.90
2018-07-21T23:12:40.842Z,7.87
2018-07-21T23:15:09.698Z,10.87
2018-07-21T23:17:37.783Z,7.63
2018-07-21T23:20:06.903Z,7.50
2018-07-21T23:22:35.205Z,9.07
2018-07-21T23:25:03.314Z,8.07
2018-07-21T23:27:31.379Z,8.73
2018-07-21T23:29:59.727Z,8.90
2018-07-21T23:32:27.846Z,6.60
2018-07-21T23:34:55.922Z,7.63
2018-07-21T23:37:24.565Z,9.97
2018-07-21T23:39:52.642Z,8.80
2018-07-21T23:42:20.982Z,8.73
2018-07-21T23:44:49.110Z,10.63
2018-07-21T23:47:17.210Z,10.33
2018-07-21T23:49:45.410Z,8.63
2018-07-21T23:52:13.487Z,7.07
2018-07-21T23:54:41.576Z,11.57
2018-07-21T23:57:09.674Z,10.27
2018-07-21T23:59:37.758Z,6.87
